sensor_id;sensor_type;location;lat;lon;timestamp;P1;durP1;ratioP1;P2;durP2;ratioP2
46014;SDS011;36844;51.898;-0.874;2024-01-27T00:02:16;5.40;;;1.83;;
46014;SDS011;36844;51.898;-0.874;2024-01-27T00:04:42;5.05;;;1.42;;
46014;SDS011;36844;51.898;-0.874;2024-01-27T00:07:07;4.90;;;1.17;;
46014;SDS011;36844;51.898;-0.874;2024-01-27T00:09:32;4.25;;;1.73;;
46014;SDS011;36844;51.898;-0.874;2024-01-27T00:11:58;4.75;;;1.58;;
46014;SDS011;36844;51.898;-0.874;2024-01-27T00:14:23;5.55;;;1.95;;
46014;SDS011;36844;51.898;-0.874;2024-01-27T00:16:49;2.67;;;1.17;;
46014;SDS011;36844;51.898;-0.874;2024-01-27T00:19:14;2.95;;;0.95;;
46014;SDS011;36844;51.898;-0.874;2024-01-27T00:21:39;5.20;;;1.73;;
46014;SDS011;36844;51.898;-0.874;2024-01-27T00:24:05;4.10;;;1.75;;
46014;SDS011;36844;51.898;-0.874;2024-01-27T00:26:30;2.38;;;1.20;;
46014;SDS011;36844;51.898;-0.874;2024-01-27T00:28:55;3.05;;;1.48;;
46014;SDS011;36844;51.898;-0.874;2024-01-27T00:31:21;2.58;;;1.35;;
46014;SDS011;36844;51.898;-0.874;2024-01-27T00:33:46;2.35;;;1.08;;
46014;SDS011;36844;51.898;-0.874;2024-01-27T00:36:11;1.95;;;1.17;;
46014;SDS011;36844;51.898;-0.874;2024-01-27T00:38:37;2.47;;;1.30;;
46014;SDS011;36844;51.898;-0.874;2024-01-27T00:41:03;1.92;;;1.00;;
46014;SDS011;36844;51.898;-0.874;2024-01-27T00:43:29;4.18;;;1.27;;
46014;SDS011;36844;51.898;-0.874;2024-01-27T00:45:55;2.67;;;1.05;;
46014;SDS011;36844;51.898;-0.874;2024-01-27T00:48:21;3.30;;;1.85;;
46014;SDS011;36844;51.898;-0.874;2024-01-27T00:50:47;2.83;;;1.45;;
46014;SDS011;36844;51.898;-0.874;2024-01-27T00:53:12;2.75;;;1.30;;
46014;SDS011;36844;51.898;-0.874;2024-01-27T00:55:38;2.17;;;1.10;;
46014;SDS011;36844;51.898;-0.874;2024-01-27T00:58:03;2.75;;;1.27;;
46014;SDS011;36844;51.898;-0.874;2024-01-27T01:00:28;2.25;;;1.40;;
46014;SDS011;36844;51.898;-0.874;2024-01-27T01:02:54;2.65;;;1.67;;
46014;SDS011;36844;51.898;-0.874;2024-01-27T01:05:19;2.30;;;1.13;;
46014;SDS011;36844;51.898;-0.874;2024-01-27T01:07:44;2.10;;;1.00;;
46014;SDS011;36844;51.898;-0.874;2024-01-27T01:10:09;2.40;;;1.25;;
46014;SDS011;36844;51.898;-0.874;2024-01-27T01:12:35;3.45;;;1.20;;
46014;SDS011;36844;51.898;-0.874;2024-01-27T01:15:00;2.50;;;1.13;;
46014;SDS011;36844;51.898;-0.874;2024-01-27T01:17:25;2.08;;;0.95;;
46014;SDS011;36844;51.898;-0.874;2024-01-27T01:19:51;1.90;;;1.17;;
46014;SDS011;36844;51.898;-0.874;2024-01-27T01:22:16;1.75;;;1.05;;
46014;SDS011;36844;51.898;-0.874;2024-01-27T01:24:41;2.00;;;1.20;;
46014;SDS011;36844;51.898;-0.874;2024-01-27T01:27:07;2.70;;;1.17;;
46014;SDS011;36844;51.898;-0.874;2024-01-27T01:29:32;3.08;;;1.25;;
46014;SDS011;36844;51.898;-0.874;2024-01-27T01:31:57;1.55;;;0.90;;
46014;SDS011;36844;51.898;-0.874;2024-01-27T01:34:22;2.03;;;1.00;;
46014;SDS011;36844;51.898;-0.874;2024-01-27T01:36:48;2.92;;;1.20;;
46014;SDS011;36844;51.898;-0.874;2024-01-27T01:39:13;3.35;;;1.42;;
46014;SDS011;36844;51.898;-0.874;2024-01-27T01:41:39;2.58;;;1.08;;
46014;SDS011;36844;51.898;-0.874;2024-01-27T01:44:06;3.35;;;1.00;;
46014;SDS011;36844;51.898;-0.874;2024-01-27T01:46:31;3.20;;;1.20;;
46014;SDS011;36844;51.898;-0.874;2024-01-27T01:48:57;1.83;;;1.15;;
46014;SDS011;36844;51.898;-0.874;2024-01-27T01:51:23;2.80;;;1.30;;
46014;SDS011;36844;51.898;-0.874;2024-01-27T01:53:49;2.28;;;1.27;;
46014;SDS011;36844;51.898;-0.874;2024-01-27T01:56:16;2.85;;;1.30;;
46014;SDS011;36844;51.898;-0.874;2024-01-27T01:58:41;3.17;;;1.20;;
46014;SDS011;36844;51.898;-0.874;2024-01-27T02:01:07;2.60;;;1.10;;
46014;SDS011;36844;51.898;-0.874;2024-01-27T02:03:32;2.17;;;0.93;;
46014;SDS011;36844;51.898;-0.874;2024-01-27T02:05:58;1.70;;;1.40;;
46014;SDS011;36844;51.898;-0.874;2024-01-27T02:08:23;1.33;;;0.88;;
46014;SDS011;36844;51.898;-0.874;2024-01-27T02:10:48;2.15;;;1.08;;
46014;SDS011;36844;51.898;-0.874;2024-01-27T02:13:23;2.20;;;1.35;;
46014;SDS011;36844;51.898;-0.874;2024-01-27T02:15:49;1.90;;;0.95;;
46014;SDS011;36844;51.898;-0.874;2024-01-27T02:18:15;2.70;;;1.20;;
46014;SDS011;36844;51.898;-0.874;2024-01-27T02:20:41;1.75;;;0.82;;
46014;SDS011;36844;51.898;-0.874;2024-01-27T02:23:07;1.58;;;0.85;;
46014;SDS011;36844;51.898;-0.874;2024-01-27T02:25:33;3.55;;;1.55;;
46014;SDS011;36844;51.898;-0.874;2024-01-27T02:27:59;2.65;;;1.15;;
46014;SDS011;36844;51.898;-0.874;2024-01-27T02:30:25;3.22;;;1.20;;
46014;SDS011;36844;51.898;-0.874;2024-01-27T02:32:50;2.25;;;0.85;;
46014;SDS011;36844;51.898;-0.874;2024-01-27T02:35:16;1.55;;;1.02;;
46014;SDS011;36844;51.898;-0.874;2024-01-27T02:37:41;3.88;;;1.30;;
46014;SDS011;36844;51.898;-0.874;2024-01-27T02:40:07;1.50;;;0.80;;
46014;SDS011;36844;51.898;-0.874;2024-01-27T02:42:34;3.40;;;1.17;;
46014;SDS011;36844;51.898;-0.874;2024-01-27T02:45:00;2.60;;;0.93;;
46014;SDS011;36844;51.898;-0.874;2024-01-27T02:47:26;2.25;;;1.38;;
46014;SDS011;36844;51.898;-0.874;2024-01-27T02:49:51;2.97;;;1.05;;
46014;SDS011;36844;51.898;-0.874;2024-01-27T02:52:16;2.38;;;0.93;;
46014;SDS011;36844;51.898;-0.874;2024-01-27T02:54:42;2.22;;;1.05;;
46014;SDS011;36844;51.898;-0.874;2024-01-27T02:57:07;2.40;;;1.35;;
46014;SDS011;36844;51.898;-0.874;2024-01-27T02:59:32;2.95;;;1.33;;
46014;SDS011;36844;51.898;-0.874;2024-01-27T03:01:58;2.83;;;0.90;;
46014;SDS011;36844;51.898;-0.874;2024-01-27T03:04:23;2.95;;;1.00;;
46014;SDS011;36844;51.898;-0.874;2024-01-27T03:06:48;3.72;;;1.17;;
46014;SDS011;36844;51.898;-0.874;2024-01-27T03:09:13;1.88;;;0.90;;
46014;SDS011;36844;51.898;-0.874;2024-01-27T03:11:39;1.40;;;1.15;;
46014;SDS011;36844;51.898;-0.874;2024-01-27T03:14:04;2.15;;;0.90;;
46014;SDS011;36844;51.898;-0.874;2024-01-27T03:16:29;2.28;;;1.05;;
46014;SDS011;36844;51.898;-0.874;2024-01-27T03:18:55;1.67;;;0.70;;
46014;SDS011;36844;51.898;-0.874;2024-01-27T03:21:20;1.65;;;1.10;;
46014;SDS011;36844;51.898;-0.874;2024-01-27T03:23:45;1.08;;;0.73;;
46014;SDS011;36844;51.898;-0.874;2024-01-27T03:26:11;2.13;;;1.02;;
46014;SDS011;36844;51.898;-0.874;2024-01-27T03:28:36;1.88;;;0.95;;
46014;SDS011;36844;51.898;-0.874;2024-01-27T03:31:01;3.45;;;1.02;;
46014;SDS011;36844;51.898;-0.874;2024-01-27T03:33:26;1.00;;;0.80;;
46014;SDS011;36844;51.898;-0.874;2024-01-27T03:35:54;1.35;;;0.70;;
46014;SDS011;36844;51.898;-0.874;2024-01-27T03:38:19;3.13;;;0.80;;
46014;SDS011;36844;51.898;-0.874;2024-01-27T03:40:45;1.98;;;0.93;;
46014;SDS011;36844;51.898;-0.874;2024-01-27T03:43:10;1.35;;;0.70;;
46014;SDS011;36844;51.898;-0.874;2024-01-27T03:45:35;1.65;;;0.90;;
46014;SDS011;36844;51.898;-0.874;2024-01-27T03:48:01;2.70;;;0.80;;
46014;SDS011;36844;51.898;-0.874;2024-01-27T03:50:26;2.35;;;0.90;;
46014;SDS011;36844;51.898;-0.874;2024-01-27T03:52:51;1.23;;;0.75;;
46014;SDS011;36844;51.898;-0.874;2024-01-27T03:55:17;2.40;;;0.80;;
46014;SDS011;36844;51.898;-0.874;2024-01-27T03:57:42;2.03;;;1.00;;
46014;SDS011;36844;51.898;-0.874;2024-01-27T04:00:07;2.88;;;0.90;;
46014;SDS011;36844;51.898;-0.874;2024-01-27T04:02:33;2.60;;;1.23;;
46014;SDS011;36844;51.898;-0.874;2024-01-27T04:04:58;1.95;;;0.50;;
46014;SDS011;36844;51.898;-0.874;2024-01-27T04:07:24;2.90;;;1.20;;
46014;SDS011;36844;51.898;-0.874;2024-01-27T04:09:49;1.40;;;0.75;;
46014;SDS011;36844;51.898;-0.874;2024-01-27T04:12:14;2.72;;;0.95;;
46014;SDS011;36844;51.898;-0.874;2024-01-27T04:14:40;2.08;;;0.88;;
46014;SDS011;36844;51.898;-0.874;2024-01-27T04:17:05;1.25;;;0.63;;
46014;SDS011;36844;51.898;-0.874;2024-01-27T04:19:31;1.10;;;0.50;;
46014;SDS011;36844;51.898;-0.874;2024-01-27T04:21:56;1.20;;;0.70;;
46014;SDS011;36844;51.898;-0.874;2024-01-27T04:24:21;1.02;;;0.60;;
46014;SDS011;36844;51.898;-0.874;2024-01-27T04:26:47;2.47;;;0.80;;
46014;SDS011;36844;51.898;-0.874;2024-01-27T04:29:13;1.75;;;0.80;;
46014;SDS011;36844;51.898;-0.874;2024-01-27T04:31:40;1.67;;;0.63;;
46014;SDS011;36844;51.898;-0.874;2024-01-27T04:34:06;1.38;;;0.55;;
46014;SDS011;36844;51.898;-0.874;2024-01-27T04:36:32;2.95;;;0.80;;
46014;SDS011;36844;51.898;-0.874;2024-01-27T04:38:57;2.92;;;0.85;;
46014;SDS011;36844;51.898;-0.874;2024-01-27T04:41:22;1.70;;;0.98;;
46014;SDS011;36844;51.898;-0.874;2024-01-27T04:43:48;1.63;;;0.80;;
46014;SDS011;36844;51.898;-0.874;2024-01-27T04:46:13;0.80;;;0.68;;
46014;SDS011;36844;51.898;-0.874;2024-01-27T04:48:38;1.75;;;0.93;;
46014;SDS011;36844;51.898;-0.874;2024-01-27T04:51:04;1.77;;;0.80;;
46014;SDS011;36844;51.898;-0.874;2024-01-27T04:53:29;3.47;;;1.13;;
46014;SDS011;36844;51.898;-0.874;2024-01-27T04:55:54;1.75;;;0.93;;
46014;SDS011;36844;51.898;-0.874;2024-01-27T04:58:20;2.47;;;1.00;;
46014;SDS011;36844;51.898;-0.874;2024-01-27T05:00:45;1.10;;;0.57;;
46014;SDS011;36844;51.898;-0.874;2024-01-27T05:03:11;2.25;;;1.20;;
46014;SDS011;36844;51.898;-0.874;2024-01-27T05:05:41;2.45;;;1.13;;
46014;SDS011;36844;51.898;-0.874;2024-01-27T05:08:07;2.40;;;0.88;;
46014;SDS011;36844;51.898;-0.874;2024-01-27T05:10:33;1.10;;;0.70;;
46014;SDS011;36844;51.898;-0.874;2024-01-27T05:12:58;1.20;;;0.80;;
46014;SDS011;36844;51.898;-0.874;2024-01-27T05:15:24;0.98;;;0.65;;
46014;SDS011;36844;51.898;-0.874;2024-01-27T05:17:50;1.48;;;0.70;;
46014;SDS011;36844;51.898;-0.874;2024-01-27T05:20:15;1.45;;;0.80;;
46014;SDS011;36844;51.898;-0.874;2024-01-27T05:22:40;3.00;;;1.05;;
46014;SDS011;36844;51.898;-0.874;2024-01-27T05:25:06;1.88;;;0.85;;
46014;SDS011;36844;51.898;-0.874;2024-01-27T05:27:31;1.25;;;0.68;;
46014;SDS011;36844;51.898;-0.874;2024-01-27T05:29:56;1.65;;;0.90;;
46014;SDS011;36844;51.898;-0.874;2024-01-27T05:32:22;2.08;;;0.73;;
46014;SDS011;36844;51.898;-0.874;2024-01-27T05:34:47;1.65;;;0.75;;
46014;SDS011;36844;51.898;-0.874;2024-01-27T05:37:12;0.75;;;0.75;;
46014;SDS011;36844;51.898;-0.874;2024-01-27T05:39:38;1.38;;;0.80;;
46014;SDS011;36844;51.898;-0.874;2024-01-27T05:42:03;1.75;;;0.77;;
46014;SDS011;36844;51.898;-0.874;2024-01-27T05:44:29;0.80;;;0.52;;
46014;SDS011;36844;51.898;-0.874;2024-01-27T05:46:54;1.05;;;0.80;;
46014;SDS011;36844;51.898;-0.874;2024-01-27T05:49:20;0.65;;;0.55;;
46014;SDS011;36844;51.898;-0.874;2024-01-27T05:51:45;1.88;;;0.68;;
46014;SDS011;36844;51.898;-0.874;2024-01-27T05:54:10;1.05;;;0.60;;
46014;SDS011;36844;51.898;-0.874;2024-01-27T05:56:39;0.90;;;0.80;;
46014;SDS011;36844;51.898;-0.874;2024-01-27T05:59:05;2.13;;;1.10;;
46014;SDS011;36844;51.898;-0.874;2024-01-27T06:01:31;0.63;;;0.52;;
46014;SDS011;36844;51.898;-0.874;2024-01-27T06:03:56;2.00;;;1.25;;
46014;SDS011;36844;51.898;-0.874;2024-01-27T06:06:21;0.80;;;0.50;;
46014;SDS011;36844;51.898;-0.874;2024-01-27T06:08:47;3.55;;;0.75;;
46014;SDS011;36844;51.898;-0.874;2024-01-27T06:11:12;2.15;;;1.23;;
46014;SDS011;36844;51.898;-0.874;2024-01-27T06:13:37;1.75;;;0.80;;
46014;SDS011;36844;51.898;-0.874;2024-01-27T06:16:07;2.85;;;0.90;;
46014;SDS011;36844;51.898;-0.874;2024-01-27T06:18:34;2.67;;;0.60;;
46014;SDS011;36844;51.898;-0.874;2024-01-27T06:21:00;3.28;;;1.30;;
46014;SDS011;36844;51.898;-0.874;2024-01-27T06:23:25;1.23;;;0.60;;
46014;SDS011;36844;51.898;-0.874;2024-01-27T06:25:51;1.50;;;0.70;;
46014;SDS011;36844;51.898;-0.874;2024-01-27T06:28:17;1.65;;;0.52;;
46014;SDS011;36844;51.898;-0.874;2024-01-27T06:30:42;0.63;;;0.50;;
46014;SDS011;36844;51.898;-0.874;2024-01-27T06:33:08;1.73;;;0.60;;
46014;SDS011;36844;51.898;-0.874;2024-01-27T06:35:33;1.60;;;0.90;;
46014;SDS011;36844;51.898;-0.874;2024-01-27T06:37:58;1.23;;;0.90;;
46014;SDS011;36844;51.898;-0.874;2024-01-27T06:40:24;1.83;;;0.73;;
46014;SDS011;36844;51.898;-0.874;2024-01-27T06:42:49;2.67;;;1.13;;
46014;SDS011;36844;51.898;-0.874;2024-01-27T06:45:15;1.17;;;0.55;;
46014;SDS011;36844;51.898;-0.874;2024-01-27T06:47:41;2.03;;;0.77;;
46014;SDS011;36844;51.898;-0.874;2024-01-27T06:50:06;1.83;;;0.70;;
46014;SDS011;36844;51.898;-0.874;2024-01-27T06:52:32;1.10;;;0.70;;
46014;SDS011;36844;51.898;-0.874;2024-01-27T06:54:57;1.52;;;0.85;;
46014;SDS011;36844;51.898;-0.874;2024-01-27T06:57:23;1.85;;;0.63;;
46014;SDS011;36844;51.898;-0.874;2024-01-27T06:59:50;1.45;;;0.90;;
46014;SDS011;36844;51.898;-0.874;2024-01-27T07:02:23;1.52;;;0.90;;
46014;SDS011;36844;51.898;-0.874;2024-01-27T07:04:52;1.52;;;0.93;;
46014;SDS011;36844;51.898;-0.874;2024-01-27T07:07:18;3.30;;;0.60;;
46014;SDS011;36844;51.898;-0.874;2024-01-27T07:09:46;2.03;;;0.88;;
46014;SDS011;36844;51.898;-0.874;2024-01-27T07:12:11;1.35;;;0.57;;
46014;SDS011;36844;51.898;-0.874;2024-01-27T07:14:36;1.75;;;0.50;;
46014;SDS011;36844;51.898;-0.874;2024-01-27T07:17:03;3.08;;;1.13;;
46014;SDS011;36844;51.898;-0.874;2024-01-27T07:19:29;2.30;;;0.70;;
46014;SDS011;36844;51.898;-0.874;2024-01-27T07:21:54;2.95;;;0.80;;
46014;SDS011;36844;51.898;-0.874;2024-01-27T07:24:19;1.67;;;0.90;;
46014;SDS011;36844;51.898;-0.874;2024-01-27T07:26:45;2.05;;;1.17;;
46014;SDS011;36844;51.898;-0.874;2024-01-27T07:29:10;1.77;;;0.63;;
46014;SDS011;36844;51.898;-0.874;2024-01-27T07:31:35;1.45;;;0.82;;
46014;SDS011;36844;51.898;-0.874;2024-01-27T07:34:01;2.28;;;0.73;;
46014;SDS011;36844;51.898;-0.874;2024-01-27T07:36:27;2.55;;;1.13;;
46014;SDS011;36844;51.898;-0.874;2024-01-27T07:38:56;1.17;;;0.55;;
46014;SDS011;36844;51.898;-0.874;2024-01-27T07:41:21;2.03;;;0.77;;
46014;SDS011;36844;51.898;-0.874;2024-01-27T07:43:46;1.80;;;0.63;;
46014;SDS011;36844;51.898;-0.874;2024-01-27T07:46:12;0.95;;;0.50;;
46014;SDS011;36844;51.898;-0.874;2024-01-27T07:48:37;0.75;;;0.60;;
46014;SDS011;36844;51.898;-0.874;2024-01-27T07:51:02;1.58;;;0.73;;
46014;SDS011;36844;51.898;-0.874;2024-01-27T07:53:28;1.05;;;0.60;;
46014;SDS011;36844;51.898;-0.874;2024-01-27T07:55:53;0.55;;;0.50;;
46014;SDS011;36844;51.898;-0.874;2024-01-27T07:58:19;5.68;;;1.55;;
46014;SDS011;36844;51.898;-0.874;2024-01-27T08:00:44;3.83;;;1.92;;
46014;SDS011;36844;51.898;-0.874;2024-01-27T08:03:10;3.72;;;1.52;;
46014;SDS011;36844;51.898;-0.874;2024-01-27T08:05:35;1.73;;;0.77;;
46014;SDS011;36844;51.898;-0.874;2024-01-27T08:08:00;3.17;;;1.10;;
46014;SDS011;36844;51.898;-0.874;2024-01-27T08:10:25;2.63;;;1.08;;
46014;SDS011;36844;51.898;-0.874;2024-01-27T08:12:51;2.63;;;0.88;;
46014;SDS011;36844;51.898;-0.874;2024-01-27T08:15:16;3.83;;;1.08;;
46014;SDS011;36844;51.898;-0.874;2024-01-27T08:17:41;2.33;;;0.75;;
46014;SDS011;36844;51.898;-0.874;2024-01-27T08:20:07;3.80;;;0.80;;
46014;SDS011;36844;51.898;-0.874;2024-01-27T08:22:33;2.00;;;0.80;;
46014;SDS011;36844;51.898;-0.874;2024-01-27T08:24:59;2.80;;;1.02;;
46014;SDS011;36844;51.898;-0.874;2024-01-27T08:27:24;1.23;;;0.80;;
46014;SDS011;36844;51.898;-0.874;2024-01-27T08:29:49;2.03;;;1.02;;
46014;SDS011;36844;51.898;-0.874;2024-01-27T08:32:14;2.03;;;0.80;;
46014;SDS011;36844;51.898;-0.874;2024-01-27T08:34:40;2.13;;;1.20;;
46014;SDS011;36844;51.898;-0.874;2024-01-27T08:37:14;1.63;;;0.73;;
46014;SDS011;36844;51.898;-0.874;2024-01-27T08:39:45;1.90;;;1.05;;
46014;SDS011;36844;51.898;-0.874;2024-01-27T08:42:11;4.97;;;1.38;;
46014;SDS011;36844;51.898;-0.874;2024-01-27T08:44:39;3.90;;;1.42;;
46014;SDS011;36844;51.898;-0.874;2024-01-27T08:47:05;5.53;;;1.27;;
46014;SDS011;36844;51.898;-0.874;2024-01-27T08:49:31;3.17;;;1.17;;
46014;SDS011;36844;51.898;-0.874;2024-01-27T08:51:56;4.90;;;0.93;;
46014;SDS011;36844;51.898;-0.874;2024-01-27T08:54:21;3.58;;;1.25;;
46014;SDS011;36844;51.898;-0.874;2024-01-27T08:56:47;3.10;;;1.10;;
46014;SDS011;36844;51.898;-0.874;2024-01-27T08:59:12;8.10;;;1.60;;
46014;SDS011;36844;51.898;-0.874;2024-01-27T09:01:37;2.53;;;1.10;;
46014;SDS011;36844;51.898;-0.874;2024-01-27T09:04:03;3.25;;;1.15;;
46014;SDS011;36844;51.898;-0.874;2024-01-27T09:06:28;4.05;;;1.40;;
46014;SDS011;36844;51.898;-0.874;2024-01-27T09:08:53;4.78;;;1.27;;
46014;SDS011;36844;51.898;-0.874;2024-01-27T09:11:19;4.03;;;1.52;;
46014;SDS011;36844;51.898;-0.874;2024-01-27T09:13:44;1.75;;;0.95;;
46014;SDS011;36844;51.898;-0.874;2024-01-27T09:16:10;4.07;;;1.20;;
46014;SDS011;36844;51.898;-0.874;2024-01-27T09:18:38;5.13;;;1.08;;
46014;SDS011;36844;51.898;-0.874;2024-01-27T09:21:03;3.60;;;1.33;;
46014;SDS011;36844;51.898;-0.874;2024-01-27T09:23:29;5.57;;;1.50;;
46014;SDS011;36844;51.898;-0.874;2024-01-27T09:25:54;3.25;;;1.27;;
46014;SDS011;36844;51.898;-0.874;2024-01-27T09:28:19;3.72;;;1.00;;
46014;SDS011;36844;51.898;-0.874;2024-01-27T09:30:45;3.58;;;1.65;;
46014;SDS011;36844;51.898;-0.874;2024-01-27T09:33:10;4.35;;;1.02;;
46014;SDS011;36844;51.898;-0.874;2024-01-27T09:35:36;3.00;;;1.35;;
46014;SDS011;36844;51.898;-0.874;2024-01-27T09:38:01;3.55;;;1.40;;
46014;SDS011;36844;51.898;-0.874;2024-01-27T09:40:26;4.07;;;1.10;;
46014;SDS011;36844;51.898;-0.874;2024-01-27T09:42:52;5.05;;;1.83;;
46014;SDS011;36844;51.898;-0.874;2024-01-27T09:45:20;8.05;;;1.40;;
46014;SDS011;36844;51.898;-0.874;2024-01-27T09:47:47;5.15;;;1.45;;
46014;SDS011;36844;51.898;-0.874;2024-01-27T09:50:13;4.05;;;1.17;;
46014;SDS011;36844;51.898;-0.874;2024-01-27T09:52:39;4.03;;;1.35;;
46014;SDS011;36844;51.898;-0.874;2024-01-27T09:55:04;4.90;;;1.45;;
46014;SDS011;36844;51.898;-0.874;2024-01-27T09:57:30;3.50;;;1.38;;
46014;SDS011;36844;51.898;-0.874;2024-01-27T09:59:56;4.40;;;1.50;;
46014;SDS011;36844;51.898;-0.874;2024-01-27T10:02:22;2.47;;;1.30;;
46014;SDS011;36844;51.898;-0.874;2024-01-27T10:04:49;5.10;;;1.40;;
46014;SDS011;36844;51.898;-0.874;2024-01-27T10:07:15;6.40;;;1.90;;
46014;SDS011;36844;51.898;-0.874;2024-01-27T10:09:40;3.75;;;1.67;;
46014;SDS011;36844;51.898;-0.874;2024-01-27T10:12:08;4.97;;;1.48;;
46014;SDS011;36844;51.898;-0.874;2024-01-27T10:14:41;8.65;;;1.45;;
46014;SDS011;36844;51.898;-0.874;2024-01-27T10:17:10;8.18;;;2.15;;
46014;SDS011;36844;51.898;-0.874;2024-01-27T10:19:36;8.40;;;1.88;;
46014;SDS011;36844;51.898;-0.874;2024-01-27T10:22:02;5.72;;;1.60;;
46014;SDS011;36844;51.898;-0.874;2024-01-27T10:24:28;4.20;;;1.10;;
46014;SDS011;36844;51.898;-0.874;2024-01-27T10:27:01;4.40;;;1.27;;
46014;SDS011;36844;51.898;-0.874;2024-01-27T10:29:28;4.18;;;1.27;;
46014;SDS011;36844;51.898;-0.874;2024-01-27T10:31:54;7.72;;;2.25;;
46014;SDS011;36844;51.898;-0.874;2024-01-27T10:34:19;4.28;;;1.67;;
46014;SDS011;36844;51.898;-0.874;2024-01-27T10:36:45;5.40;;;1.48;;
46014;SDS011;36844;51.898;-0.874;2024-01-27T10:39:29;4.22;;;1.40;;
46014;SDS011;36844;51.898;-0.874;2024-01-27T10:41:54;3.92;;;1.45;;
46014;SDS011;36844;51.898;-0.874;2024-01-27T10:44:20;4.35;;;1.80;;
46014;SDS011;36844;51.898;-0.874;2024-01-27T10:46:48;3.65;;;1.55;;
46014;SDS011;36844;51.898;-0.874;2024-01-27T10:49:16;5.38;;;2.00;;
46014;SDS011;36844;51.898;-0.874;2024-01-27T10:51:45;2.58;;;1.15;;
46014;SDS011;36844;51.898;-0.874;2024-01-27T10:54:23;3.88;;;1.52;;
46014;SDS011;36844;51.898;-0.874;2024-01-27T10:56:51;3.30;;;1.35;;
46014;SDS011;36844;51.898;-0.874;2024-01-27T10:59:19;4.07;;;1.52;;
46014;SDS011;36844;51.898;-0.874;2024-01-27T11:01:46;4.50;;;1.73;;
46014;SDS011;36844;51.898;-0.874;2024-01-27T11:04:16;7.47;;;1.40;;
46014;SDS011;36844;51.898;-0.874;2024-01-27T11:06:42;6.60;;;2.20;;
46014;SDS011;36844;51.898;-0.874;2024-01-27T11:09:09;5.72;;;1.77;;
46014;SDS011;36844;51.898;-0.874;2024-01-27T11:11:37;8.55;;;1.45;;
46014;SDS011;36844;51.898;-0.874;2024-01-27T11:14:03;10.60;;;2.00;;
46014;SDS011;36844;51.898;-0.874;2024-01-27T11:16:28;6.78;;;1.40;;
46014;SDS011;36844;51.898;-0.874;2024-01-27T11:18:54;3.47;;;1.45;;
46014;SDS011;36844;51.898;-0.874;2024-01-27T11:21:19;4.90;;;1.50;;
46014;SDS011;36844;51.898;-0.874;2024-01-27T11:23:45;4.57;;;1.13;;
46014;SDS011;36844;51.898;-0.874;2024-01-27T11:26:16;3.40;;;1.25;;
46014;SDS011;36844;51.898;-0.874;2024-01-27T11:28:44;4.15;;;1.52;;
46014;SDS011;36844;51.898;-0.874;2024-01-27T11:31:10;3.60;;;1.52;;
46014;SDS011;36844;51.898;-0.874;2024-01-27T11:33:43;5.15;;;1.35;;
46014;SDS011;36844;51.898;-0.874;2024-01-27T11:36:14;5.80;;;1.35;;
46014;SDS011;36844;51.898;-0.874;2024-01-27T11:38:43;7.28;;;1.65;;
46014;SDS011;36844;51.898;-0.874;2024-01-27T11:41:08;7.25;;;1.45;;
46014;SDS011;36844;51.898;-0.874;2024-01-27T11:43:34;3.70;;;1.83;;
46014;SDS011;36844;51.898;-0.874;2024-01-27T11:46:00;4.35;;;1.55;;
46014;SDS011;36844;51.898;-0.874;2024-01-27T11:48:26;7.03;;;1.15;;
46014;SDS011;36844;51.898;-0.874;2024-01-27T11:51:05;8.20;;;2.03;;
46014;SDS011;36844;51.898;-0.874;2024-01-27T11:53:31;5.03;;;1.65;;
46014;SDS011;36844;51.898;-0.874;2024-01-27T11:55:56;4.07;;;1.88;;
46014;SDS011;36844;51.898;-0.874;2024-01-27T11:58:22;4.10;;;1.10;;
46014;SDS011;36844;51.898;-0.874;2024-01-27T12:00:47;5.60;;;1.77;;
46014;SDS011;36844;51.898;-0.874;2024-01-27T12:03:13;4.03;;;1.73;;
46014;SDS011;36844;51.898;-0.874;2024-01-27T12:05:38;4.38;;;1.50;;
46014;SDS011;36844;51.898;-0.874;2024-01-27T12:08:04;6.78;;;2.40;;
46014;SDS011;36844;51.898;-0.874;2024-01-27T12:10:32;3.92;;;1.52;;
46014;SDS011;36844;51.898;-0.874;2024-01-27T12:12:58;7.57;;;1.45;;
46014;SDS011;36844;51.898;-0.874;2024-01-27T12:15:23;6.25;;;2.72;;
46014;SDS011;36844;51.898;-0.874;2024-01-27T12:17:52;5.88;;;1.60;;
46014;SDS011;36844;51.898;-0.874;2024-01-27T12:20:17;6.72;;;2.88;;
46014;SDS011;36844;51.898;-0.874;2024-01-27T12:22:43;7.28;;;2.03;;
46014;SDS011;36844;51.898;-0.874;2024-01-27T12:25:11;5.75;;;1.90;;
46014;SDS011;36844;51.898;-0.874;2024-01-27T12:27:40;9.00;;;2.25;;
46014;SDS011;36844;51.898;-0.874;2024-01-27T12:30:06;15.63;;;3.20;;
46014;SDS011;36844;51.898;-0.874;2024-01-27T12:32:32;14.98;;;4.22;;
46014;SDS011;36844;51.898;-0.874;2024-01-27T12:34:58;12.18;;;3.45;;
46014;SDS011;36844;51.898;-0.874;2024-01-27T12:37:25;13.23;;;3.17;;
46014;SDS011;36844;51.898;-0.874;2024-01-27T12:39:51;13.77;;;2.92;;
46014;SDS011;36844;51.898;-0.874;2024-01-27T12:42:16;7.05;;;2.30;;
46014;SDS011;36844;51.898;-0.874;2024-01-27T12:44:42;11.00;;;2.47;;
46014;SDS011;36844;51.898;-0.874;2024-01-27T12:47:09;10.98;;;2.20;;
46014;SDS011;36844;51.898;-0.874;2024-01-27T12:49:35;9.27;;;2.55;;
46014;SDS011;36844;51.898;-0.874;2024-01-27T12:52:00;9.13;;;2.47;;
46014;SDS011;36844;51.898;-0.874;2024-01-27T12:54:26;6.57;;;2.00;;
46014;SDS011;36844;51.898;-0.874;2024-01-27T12:56:51;9.43;;;1.98;;
46014;SDS011;36844;51.898;-0.874;2024-01-27T12:59:16;8.15;;;2.10;;
46014;SDS011;36844;51.898;-0.874;2024-01-27T13:01:42;11.18;;;2.03;;
46014;SDS011;36844;51.898;-0.874;2024-01-27T13:04:07;7.55;;;1.60;;
46014;SDS011;36844;51.898;-0.874;2024-01-27T13:06:33;5.85;;;1.52;;
46014;SDS011;36844;51.898;-0.874;2024-01-27T13:08:58;6.97;;;1.83;;
46014;SDS011;36844;51.898;-0.874;2024-01-27T13:11:24;15.30;;;2.55;;
46014;SDS011;36844;51.898;-0.874;2024-01-27T13:13:49;9.07;;;1.48;;
46014;SDS011;36844;51.898;-0.874;2024-01-27T13:16:14;4.75;;;1.50;;
46014;SDS011;36844;51.898;-0.874;2024-01-27T13:18:40;13.45;;;2.17;;
46014;SDS011;36844;51.898;-0.874;2024-01-27T13:21:05;7.82;;;1.90;;
46014;SDS011;36844;51.898;-0.874;2024-01-27T13:23:31;7.70;;;1.45;;
46014;SDS011;36844;51.898;-0.874;2024-01-27T13:25:57;7.93;;;1.65;;
46014;SDS011;36844;51.898;-0.874;2024-01-27T13:28:23;5.72;;;1.40;;
46014;SDS011;36844;51.898;-0.874;2024-01-27T13:30:48;6.05;;;1.20;;
46014;SDS011;36844;51.898;-0.874;2024-01-27T13:33:14;5.60;;;1.35;;
46014;SDS011;36844;51.898;-0.874;2024-01-27T13:35:40;10.13;;;1.70;;
46014;SDS011;36844;51.898;-0.874;2024-01-27T13:38:09;6.75;;;1.80;;
46014;SDS011;36844;51.898;-0.874;2024-01-27T13:40:34;11.18;;;2.13;;
46014;SDS011;36844;51.898;-0.874;2024-01-27T13:42:59;4.88;;;1.95;;
46014;SDS011;36844;51.898;-0.874;2024-01-27T13:45:25;5.03;;;1.23;;
46014;SDS011;36844;51.898;-0.874;2024-01-27T13:47:50;7.43;;;1.38;;
46014;SDS011;36844;51.898;-0.874;2024-01-27T13:50:15;7.43;;;1.90;;
46014;SDS011;36844;51.898;-0.874;2024-01-27T13:52:41;5.85;;;1.58;;
46014;SDS011;36844;51.898;-0.874;2024-01-27T13:55:08;4.53;;;1.52;;
46014;SDS011;36844;51.898;-0.874;2024-01-27T13:57:34;8.15;;;2.88;;
46014;SDS011;36844;51.898;-0.874;2024-01-27T14:00:00;7.38;;;1.45;;
46014;SDS011;36844;51.898;-0.874;2024-01-27T14:02:25;6.55;;;1.25;;
46014;SDS011;36844;51.898;-0.874;2024-01-27T14:04:50;8.52;;;2.00;;
46014;SDS011;36844;51.898;-0.874;2024-01-27T14:07:16;5.05;;;1.10;;
46014;SDS011;36844;51.898;-0.874;2024-01-27T14:09:41;5.53;;;1.48;;
46014;SDS011;36844;51.898;-0.874;2024-01-27T14:12:09;6.35;;;1.52;;
46014;SDS011;36844;51.898;-0.874;2024-01-27T14:14:34;5.88;;;1.55;;
46014;SDS011;36844;51.898;-0.874;2024-01-27T14:17:03;4.85;;;1.80;;
46014;SDS011;36844;51.898;-0.874;2024-01-27T14:19:29;6.65;;;1.73;;
46014;SDS011;36844;51.898;-0.874;2024-01-27T14:21:54;6.43;;;1.65;;
46014;SDS011;36844;51.898;-0.874;2024-01-27T14:24:20;5.63;;;1.52;;
46014;SDS011;36844;51.898;-0.874;2024-01-27T14:26:46;5.50;;;1.80;;